sensor_id;sensor_type;location;lat;lon;timestamp;P1;durP1;ratioP1;P2;durP2;ratioP2
73898;SDS011;62234;50.892;12.724;2023-01-20T06:02:56;13.25;;;6.10;;
73898;SDS011;62234;50.892;12.724;2023-01-20T06:10:58;13.10;;;5.38;;
73898;SDS011;62234;50.892;12.724;2023-01-20T06:13:24;15.25;;;6.20;;
73898;SDS011;62234;50.892;12.724;2023-01-20T06:15:50;10.57;;;6.20;;
73898;SDS011;62234;50.892;12.724;2023-01-20T06:18:17;14.15;;;6.38;;
73898;SDS011;62234;50.892;12.724;2023-01-20T06:20:43;6.72;;;3.83;;
73898;SDS011;62234;50.892;12.724;2023-01-20T06:23:09;12.65;;;6.50;;
73898;SDS011;62234;50.892;12.724;2023-01-20T06:25:35;14.55;;;6.15;;
73898;SDS011;62234;50.892;12.724;2023-01-20T06:28:01;13.45;;;5.40;;
73898;SDS011;62234;50.892;12.724;2023-01-20T06:30:27;9.55;;;4.95;;
73898;SDS011;62234;50.892;12.724;2023-01-20T06:32:53;16.60;;;7.05;;
73898;SDS011;62234;50.892;12.724;2023-01-20T06:35:19;13.77;;;6.95;;
73898;SDS011;62234;50.892;12.724;2023-01-20T06:37:45;16.58;;;6.85;;
73898;SDS011;62234;50.892;12.724;2023-01-20T06:40:11;11.05;;;6.18;;
73898;SDS011;62234;50.892;12.724;2023-01-20T06:42:38;17.15;;;6.30;;
73898;SDS011;62234;50.892;12.724;2023-01-20T06:45:04;14.75;;;7.10;;
73898;SDS011;62234;50.892;12.724;2023-01-20T06:47:31;16.00;;;6.28;;
73898;SDS011;62234;50.892;12.724;2023-01-20T06:49:56;14.35;;;6.03;;
73898;SDS011;62234;50.892;12.724;2023-01-20T06:52:22;13.23;;;6.35;;
73898;SDS011;62234;50.892;12.724;2023-01-20T06:54:48;15.27;;;6.70;;
73898;SDS011;62234;50.892;12.724;2023-01-20T06:57:15;12.70;;;6.65;;
73898;SDS011;62234;50.892;12.724;2023-01-20T06:59:41;18.75;;;7.57;;
73898;SDS011;62234;50.892;12.724;2023-01-20T07:02:08;17.85;;;6.75;;
73898;SDS011;62234;50.892;12.724;2023-01-20T07:04:34;19.83;;;7.63;;
73898;SDS011;62234;50.892;12.724;2023-01-20T07:07:00;17.80;;;7.00;;
73898;SDS011;62234;50.892;12.724;2023-01-20T07:09:26;14.27;;;6.82;;
73898;SDS011;62234;50.892;12.724;2023-01-20T07:11:51;15.85;;;7.55;;
73898;SDS011;62234;50.892;12.724;2023-01-20T07:14:17;24.23;;;8.10;;
73898;SDS011;62234;50.892;12.724;2023-01-20T07:16:44;17.92;;;7.63;;
73898;SDS011;62234;50.892;12.724;2023-01-20T07:19:11;16.10;;;6.90;;
73898;SDS011;62234;50.892;12.724;2023-01-20T07:21:37;21.17;;;7.63;;
73898;SDS011;62234;50.892;12.724;2023-01-20T07:24:03;16.77;;;7.18;;
73898;SDS011;62234;50.892;12.724;2023-01-20T07:26:29;13.35;;;7.13;;
73898;SDS011;62234;50.892;12.724;2023-01-20T07:28:58;17.10;;;7.72;;
73898;SDS011;62234;50.892;12.724;2023-01-20T07:31:25;18.92;;;8.10;;
73898;SDS011;62234;50.892;12.724;2023-01-20T07:33:55;19.48;;;7.95;;
73898;SDS011;62234;50.892;12.724;2023-01-20T07:36:21;19.08;;;8.20;;
73898;SDS011;62234;50.892;12.724;2023-01-20T07:38:50;13.13;;;5.05;;
73898;SDS011;62234;50.892;12.724;2023-01-20T07:41:16;17.83;;;7.93;;
73898;SDS011;62234;50.892;12.724;2023-01-20T07:43:47;19.40;;;7.50;;
73898;SDS011;62234;50.892;12.724;2023-01-20T07:46:13;17.02;;;8.00;;
73898;SDS011;62234;50.892;12.724;2023-01-20T07:48:40;17.25;;;6.25;;
73898;SDS011;62234;50.892;12.724;2023-01-20T07:51:07;19.00;;;8.63;;
73898;SDS011;62234;50.892;12.724;2023-01-20T07:53:34;18.55;;;6.53;;
73898;SDS011;62234;50.892;12.724;2023-01-20T07:56:01;20.83;;;8.07;;
73898;SDS011;62234;50.892;12.724;2023-01-20T07:58:28;19.52;;;8.70;;
73898;SDS011;62234;50.892;12.724;2023-01-20T08:00:54;22.25;;;8.70;;
73898;SDS011;62234;50.892;12.724;2023-01-20T08:03:21;22.10;;;8.43;;
73898;SDS011;62234;50.892;12.724;2023-01-20T08:05:47;19.98;;;8.40;;
73898;SDS011;62234;50.892;12.724;2023-01-20T08:08:13;19.80;;;8.90;;
73898;SDS011;62234;50.892;12.724;2023-01-20T08:10:39;21.30;;;8.07;;
73898;SDS011;62234;50.892;12.724;2023-01-20T08:13:05;13.30;;;6.28;;
73898;SDS011;62234;50.892;12.724;2023-01-20T08:15:31;14.55;;;7.80;;
73898;SDS011;62234;50.892;12.724;2023-01-20T08:17:57;21.70;;;8.48;;
73898;SDS011;62234;50.892;12.724;2023-01-20T08:20:24;17.17;;;6.72;;
73898;SDS011;62234;50.892;12.724;2023-01-20T08:22:50;20.75;;;8.10;;
73898;SDS011;62234;50.892;12.724;2023-01-20T08:25:16;20.98;;;8.75;;
73898;SDS011;62234;50.892;12.724;2023-01-20T08:27:42;20.33;;;8.60;;
73898;SDS011;62234;50.892;12.724;2023-01-20T08:30:08;19.05;;;8.32;;
73898;SDS011;62234;50.892;12.724;2023-01-20T08:32:34;24.05;;;8.15;;
73898;SDS011;62234;50.892;12.724;2023-01-20T08:35:00;16.90;;;8.32;;
73898;SDS011;62234;50.892;12.724;2023-01-20T08:37:26;22.45;;;7.97;;
73898;SDS011;62234;50.892;12.724;2023-01-20T08:39:52;18.50;;;8.10;;
73898;SDS011;62234;50.892;12.724;2023-01-20T08:42:17;22.33;;;7.93;;
73898;SDS011;62234;50.892;12.724;2023-01-20T08:44:43;17.80;;;8.05;;
73898;SDS011;62234;50.892;12.724;2023-01-20T08:47:11;16.10;;;8.07;;
73898;SDS011;62234;50.892;12.724;2023-01-20T08:49:37;19.13;;;7.85;;
73898;SDS011;62234;50.892;12.724;2023-01-20T08:52:03;16.00;;;8.13;;
73898;SDS011;62234;50.892;12.724;2023-01-20T08:54:29;19.63;;;8.23;;
73898;SDS011;62234;50.892;12.724;2023-01-20T08:56:58;16.02;;;7.68;;
73898;SDS011;62234;50.892;12.724;2023-01-20T08:59:24;21.58;;;8.93;;
73898;SDS011;62234;50.892;12.724;2023-01-20T09:01:50;14.82;;;7.00;;
73898;SDS011;62234;50.892;12.724;2023-01-20T09:04:16;18.90;;;7.95;;
73898;SDS011;62234;50.892;12.724;2023-01-20T09:06:43;25.00;;;8.38;;
73898;SDS011;62234;50.892;12.724;2023-01-20T09:09:10;19.58;;;7.35;;
73898;SDS011;62234;50.892;12.724;2023-01-20T09:11:37;14.73;;;6.60;;
73898;SDS011;62234;50.892;12.724;2023-01-20T09:14:03;17.88;;;7.57;;
73898;SDS011;62234;50.892;12.724;2023-01-20T09:16:29;15.27;;;7.30;;
73898;SDS011;62234;50.892;12.724;2023-01-20T09:18:55;17.35;;;6.85;;
73898;SDS011;62234;50.892;12.724;2023-01-20T09:21:22;15.60;;;6.28;;
73898;SDS011;62234;50.892;12.724;2023-01-20T09:23:48;17.25;;;6.85;;
73898;SDS011;62234;50.892;12.724;2023-01-20T09:26:14;21.00;;;7.97;;
73898;SDS011;62234;50.892;12.724;2023-01-20T09:28:40;16.38;;;7.10;;
73898;SDS011;62234;50.892;12.724;2023-01-20T09:31:10;15.32;;;7.63;;
73898;SDS011;62234;50.892;12.724;2023-01-20T09:33:37;18.00;;;7.20;;
73898;SDS011;62234;50.892;12.724;2023-01-20T09:36:05;15.73;;;6.88;;
73898;SDS011;62234;50.892;12.724;2023-01-20T09:38:32;17.88;;;7.63;;
73898;SDS011;62234;50.892;12.724;2023-01-20T09:41:26;13.32;;;6.35;;
73898;SDS011;62234;50.892;12.724;2023-01-20T09:44:55;14.13;;;6.28;;
73898;SDS011;62234;50.892;12.724;2023-01-20T09:52:45;15.73;;;6.32;;
73898;SDS011;62234;50.892;12.724;2023-01-20T09:58:04;15.05;;;6.70;;
73898;SDS011;62234;50.892;12.724;2023-01-20T10:00:32;18.48;;;6.32;;
73898;SDS011;62234;50.892;12.724;2023-01-20T10:03:06;16.05;;;6.05;;
73898;SDS011;62234;50.892;12.724;2023-01-20T10:05:36;12.52;;;6.35;;
73898;SDS011;62234;50.892;12.724;2023-01-20T10:11:10;14.82;;;5.80;;
73898;SDS011;62234;50.892;12.724;2023-01-20T10:13:51;16.23;;;6.53;;
73898;SDS011;62234;50.892;12.724;2023-01-20T10:16:23;22.02;;;7.43;;
73898;SDS011;62234;50.892;12.724;2023-01-20T10:19:02;17.33;;;7.68;;
73898;SDS011;62234;50.892;12.724;2023-01-20T10:21:39;17.95;;;6.72;;
73898;SDS011;62234;50.892;12.724;2023-01-20T10:24:08;19.85;;;7.63;;
73898;SDS011;62234;50.892;12.724;2023-01-20T10:26:48;16.77;;;7.75;;
73898;SDS011;62234;50.892;12.724;2023-01-20T10:29:31;15.40;;;6.65;;
73898;SDS011;62234;50.892;12.724;2023-01-20T10:31:59;11.52;;;5.82;;
73898;SDS011;62234;50.892;12.724;2023-01-20T10:34:47;15.13;;;6.80;;
73898;SDS011;62234;50.892;12.724;2023-01-20T10:37:12;16.48;;;6.70;;
73898;SDS011;62234;50.892;12.724;2023-01-20T10:39:48;14.63;;;6.05;;
73898;SDS011;62234;50.892;12.724;2023-01-20T10:42:17;14.85;;;6.47;;
73898;SDS011;62234;50.892;12.724;2023-01-20T10:44:44;14.30;;;6.45;;
73898;SDS011;62234;50.892;12.724;2023-01-20T10:47:24;9.93;;;5.43;;
73898;SDS011;62234;50.892;12.724;2023-01-20T10:49:58;14.48;;;5.47;;
73898;SDS011;62234;50.892;12.724;2023-01-20T10:55:27;14.93;;;5.15;;
73898;SDS011;62234;50.892;12.724;2023-01-20T10:58:13;9.73;;;4.55;;
73898;SDS011;62234;50.892;12.724;2023-01-20T11:00:41;13.88;;;5.00;;
73898;SDS011;62234;50.892;12.724;2023-01-20T11:03:07;5.93;;;3.60;;
73898;SDS011;62234;50.892;12.724;2023-01-20T11:05:38;8.73;;;3.42;;
73898;SDS011;62234;50.892;12.724;2023-01-20T11:08:48;11.13;;;4.80;;
73898;SDS011;62234;50.892;12.724;2023-01-20T11:10:55;10.45;;;4.95;;
73898;SDS011;62234;50.892;12.724;2023-01-20T11:13:22;9.65;;;5.30;;
73898;SDS011;62234;50.892;12.724;2023-01-20T11:15:56;13.52;;;5.53;;
73898;SDS011;62234;50.892;12.724;2023-01-20T11:18:27;11.02;;;5.05;;
73898;SDS011;62234;50.892;12.724;2023-01-20T11:21:01;12.70;;;5.53;;
73898;SDS011;62234;50.892;12.724;2023-01-20T11:23:35;10.68;;;5.03;;
73898;SDS011;62234;50.892;12.724;2023-01-20T11:31:15;15.45;;;5.30;;
73898;SDS011;62234;50.892;12.724;2023-01-20T11:33:54;11.20;;;5.38;;
73898;SDS011;62234;50.892;12.724;2023-01-20T11:36:20;15.25;;;5.97;;
73898;SDS011;62234;50.892;12.724;2023-01-20T11:38:48;11.65;;;4.88;;
73898;SDS011;62234;50.892;12.724;2023-01-20T11:41:35;9.43;;;5.18;;
73898;SDS011;62234;50.892;12.724;2023-01-20T11:44:00;10.88;;;5.47;;
73898;SDS011;62234;50.892;12.724;2023-01-20T11:46:30;10.63;;;5.35;;
73898;SDS011;62234;50.892;12.724;2023-01-20T11:51:51;12.13;;;5.72;;
73898;SDS011;62234;50.892;12.724;2023-01-20T11:54:19;9.27;;;4.53;;
73898;SDS011;62234;50.892;12.724;2023-01-20T11:56:46;10.00;;;5.07;;
73898;SDS011;62234;50.892;12.724;2023-01-20T11:59:21;9.60;;;4.93;;
73898;SDS011;62234;50.892;12.724;2023-01-20T12:01:53;11.27;;;5.90;;
73898;SDS011;62234;50.892;12.724;2023-01-20T12:04:35;9.50;;;5.18;;
73898;SDS011;62234;50.892;12.724;2023-01-20T12:07:08;14.05;;;5.82;;
73898;SDS011;62234;50.892;12.724;2023-01-20T12:09:36;8.77;;;4.68;;
73898;SDS011;62234;50.892;12.724;2023-01-20T12:12:14;14.07;;;5.78;;
73898;SDS011;62234;50.892;12.724;2023-01-20T12:14:46;20.92;;;7.57;;
73898;SDS011;62234;50.892;12.724;2023-01-20T12:22:26;36.08;;;10.95;;
73898;SDS011;62234;50.892;12.724;2023-01-20T12:24:58;11.30;;;4.05;;
73898;SDS011;62234;50.892;12.724;2023-01-20T12:27:35;10.10;;;4.18;;
73898;SDS011;62234;50.892;12.724;2023-01-20T12:30:06;9.13;;;5.05;;
73898;SDS011;62234;50.892;12.724;2023-01-20T12:32:36;5.55;;;3.00;;
73898;SDS011;62234;50.892;12.724;2023-01-20T12:35:04;10.48;;;4.65;;
73898;SDS011;62234;50.892;12.724;2023-01-20T12:37:32;13.25;;;3.72;;
73898;SDS011;62234;50.892;12.724;2023-01-20T12:45:10;6.93;;;4.65;;
73898;SDS011;62234;50.892;12.724;2023-01-20T12:47:44;9.35;;;4.43;;
73898;SDS011;62234;50.892;12.724;2023-01-20T12:50:17;9.00;;;4.72;;
73898;SDS011;62234;50.892;12.724;2023-01-20T12:55:36;12.15;;;5.95;;
73898;SDS011;62234;50.892;12.724;2023-01-20T12:58:13;9.18;;;3.83;;
73898;SDS011;62234;50.892;12.724;2023-01-20T13:06:04;8.80;;;3.53;;
73898;SDS011;62234;50.892;12.724;2023-01-20T13:11:22;6.80;;;3.08;;
73898;SDS011;62234;50.892;12.724;2023-01-20T13:14:11;6.13;;;3.45;;
73898;SDS011;62234;50.892;12.724;2023-01-20T13:16:49;5.95;;;3.90;;
73898;SDS011;62234;50.892;12.724;2023-01-20T13:19:28;8.57;;;3.42;;
73898;SDS011;62234;50.892;12.724;2023-01-20T13:21:54;7.90;;;3.45;;
73898;SDS011;62234;50.892;12.724;2023-01-20T13:24:20;12.23;;;4.07;;
73898;SDS011;62234;50.892;12.724;2023-01-20T13:26:53;8.20;;;4.35;;
73898;SDS011;62234;50.892;12.724;2023-01-20T13:29:21;9.82;;;4.50;;
73898;SDS011;62234;50.892;12.724;2023-01-20T13:31:49;6.57;;;3.80;;
73898;SDS011;62234;50.892;12.724;2023-01-20T13:34:37;11.38;;;5.75;;
73898;SDS011;62234;50.892;12.724;2023-01-20T13:42:22;10.40;;;5.18;;
73898;SDS011;62234;50.892;12.724;2023-01-20T13:47:50;13.73;;;6.55;;
73898;SDS011;62234;50.892;12.724;2023-01-20T13:50:21;12.05;;;5.93;;
73898;SDS011;62234;50.892;12.724;2023-01-20T13:55:27;13.27;;;6.13;;
73898;SDS011;62234;50.892;12.724;2023-01-20T13:57:53;14.00;;;6.32;;
73898;SDS011;62234;50.892;12.724;2023-01-20T14:00:19;13.27;;;6.03;;
73898;SDS011;62234;50.892;12.724;2023-01-20T14:02:45;12.00;;;6.10;;
73898;SDS011;62234;50.892;12.724;2023-01-20T14:05:18;13.57;;;6.43;;
73898;SDS011;62234;50.892;12.724;2023-01-20T14:07:44;12.43;;;5.93;;
73898;SDS011;62234;50.892;12.724;2023-01-20T14:10:10;15.02;;;6.30;;
73898;SDS011;62234;50.892;12.724;2023-01-20T14:12:40;10.60;;;5.78;;
73898;SDS011;62234;50.892;12.724;2023-01-20T14:15:06;13.65;;;5.97;;
73898;SDS011;62234;50.892;12.724;2023-01-20T14:17:51;15.13;;;6.85;;
73898;SDS011;62234;50.892;12.724;2023-01-20T14:20:18;17.35;;;6.55;;
73898;SDS011;62234;50.892;12.724;2023-01-20T14:22:48;20.25;;;8.20;;
73898;SDS011;62234;50.892;12.724;2023-01-20T14:25:22;28.83;;;11.07;;
73898;SDS011;62234;50.892;12.724;2023-01-20T14:27:48;25.10;;;9.98;;
73898;SDS011;62234;50.892;12.724;2023-01-20T14:30:25;14.57;;;7.35;;
73898;SDS011;62234;50.892;12.724;2023-01-20T14:35:30;16.02;;;6.43;;
73898;SDS011;62234;50.892;12.724;2023-01-20T14:37:56;12.30;;;6.57;;
73898;SDS011;62234;50.892;12.724;2023-01-20T14:40:27;16.75;;;8.30;;
73898;SDS011;62234;50.892;12.724;2023-01-20T14:45:21;13.88;;;6.32;;
73898;SDS011;62234;50.892;12.724;2023-01-20T14:47:47;14.23;;;6.15;;
73898;SDS011;62234;50.892;12.724;2023-01-20T14:50:14;17.42;;;7.10;;
73898;SDS011;62234;50.892;12.724;2023-01-20T14:52:41;15.82;;;7.00;;
73898;SDS011;62234;50.892;12.724;2023-01-20T14:55:26;17.88;;;7.15;;
73898;SDS011;62234;50.892;12.724;2023-01-20T14:57:52;19.40;;;8.77;;
73898;SDS011;62234;50.892;12.724;2023-01-20T15:00:19;14.38;;;6.88;;
73898;SDS011;62234;50.892;12.724;2023-01-20T15:05:19;13.98;;;6.80;;
73898;SDS011;62234;50.892;12.724;2023-01-20T15:07:45;17.63;;;6.82;;
73898;SDS011;62234;50.892;12.724;2023-01-20T15:10:12;16.83;;;7.60;;
73898;SDS011;62234;50.892;12.724;2023-01-20T15:15:30;17.42;;;7.18;;
73898;SDS011;62234;50.892;12.724;2023-01-20T15:18:03;15.80;;;7.10;;
73898;SDS011;62234;50.892;12.724;2023-01-20T15:20:30;16.33;;;7.05;;
73898;SDS011;62234;50.892;12.724;2023-01-20T15:22:59;19.83;;;8.02;;
73898;SDS011;62234;50.892;12.724;2023-01-20T15:25:26;16.63;;;7.10;;
73898;SDS011;62234;50.892;12.724;2023-01-20T15:27:52;17.08;;;7.45;;
73898;SDS011;62234;50.892;12.724;2023-01-20T15:30:20;18.40;;;7.10;;
73898;SDS011;62234;50.892;12.724;2023-01-20T15:32:48;17.42;;;7.57;;
73898;SDS011;62234;50.892;12.724;2023-01-20T15:35:15;17.77;;;7.50;;
73898;SDS011;62234;50.892;12.724;2023-01-20T15:37:43;15.52;;;7.38;;
73898;SDS011;62234;50.892;12.724;2023-01-20T15:40:17;20.15;;;8.00;;
73898;SDS011;62234;50.892;12.724;2023-01-20T15:42:44;20.25;;;7.90;;
73898;SDS011;62234;50.892;12.724;2023-01-20T15:45:10;18.20;;;7.32;;
73898;SDS011;62234;50.892;12.724;2023-01-20T15:47:37;17.08;;;7.63;;
73898;SDS011;62234;50.892;12.724;2023-01-20T15:50:05;20.98;;;7.78;;
73898;SDS011;62234;50.892;12.724;2023-01-20T15:52:31;21.02;;;9.35;;
73898;SDS011;62234;50.892;12.724;2023-01-20T15:54:56;23.15;;;9.45;;
73898;SDS011;62234;50.892;12.724;2023-01-20T15:57:22;15.90;;;7.32;;
73898;SDS011;62234;50.892;12.724;2023-01-20T15:59:48;19.40;;;8.40;;
73898;SDS011;62234;50.892;12.724;2023-01-20T16:02:18;16.13;;;7.63;;
73898;SDS011;62234;50.892;12.724;2023-01-20T16:04:44;19.63;;;8.57;;
73898;SDS011;62234;50.892;12.724;2023-01-20T16:07:15;21.40;;;8.45;;
73898;SDS011;62234;50.892;12.724;2023-01-20T16:09:41;19.52;;;8.38;;
73898;SDS011;62234;50.892;12.724;2023-01-20T16:12:11;18.52;;;9.05;;
73898;SDS011;62234;50.892;12.724;2023-01-20T16:14:37;20.58;;;8.68;;
73898;SDS011;62234;50.892;12.724;2023-01-20T16:17:07;21.73;;;8.98;;
73898;SDS011;62234;50.892;12.724;2023-01-20T16:19:34;18.50;;;8.98;;
73898;SDS011;62234;50.892;12.724;2023-01-20T16:22:00;24.00;;;11.75;;
73898;SDS011;62234;50.892;12.724;2023-01-20T16:24:27;21.15;;;11.30;;
73898;SDS011;62234;50.892;12.724;2023-01-20T16:26:52;21.17;;;10.50;;
73898;SDS011;62234;50.892;12.724;2023-01-20T16:29:18;21.30;;;9.27;;
73898;SDS011;62234;50.892;12.724;2023-01-20T16:31:44;22.13;;;10.10;;
73898;SDS011;62234;50.892;12.724;2023-01-20T16:34:10;15.57;;;8.23;;
73898;SDS011;62234;50.892;12.724;2023-01-20T16:36:36;17.80;;;8.05;;
73898;SDS011;62234;50.892;12.724;2023-01-20T16:39:02;24.77;;;11.07;;
73898;SDS011;62234;50.892;12.724;2023-01-20T16:41:28;25.48;;;11.85;;
73898;SDS011;62234;50.892;12.724;2023-01-20T16:43:57;32.97;;;11.75;;
73898;SDS011;62234;50.892;12.724;2023-01-20T16:46:27;41.95;;;15.27;;
73898;SDS011;62234;50.892;12.724;2023-01-20T16:48:53;37.05;;;15.63;;
73898;SDS011;62234;50.892;12.724;2023-01-20T16:51:23;32.90;;;12.88;;
73898;SDS011;62234;50.892;12.724;2023-01-20T16:53:50;31.13;;;12.88;;
73898;SDS011;62234;50.892;12.724;2023-01-20T16:56:20;36.80;;;14.75;;
73898;SDS011;62234;50.892;12.724;2023-01-20T16:58:47;39.38;;;15.60;;
73898;SDS011;62234;50.892;12.724;2023-01-20T17:01:13;39.85;;;16.15;;
73898;SDS011;62234;50.892;12.724;2023-01-20T17:03:44;36.30;;;14.43;;
73898;SDS011;62234;50.892;12.724;2023-01-20T17:06:11;31.33;;;13.23;;
73898;SDS011;62234;50.892;12.724;2023-01-20T17:08:37;29.70;;;12.43;;
73898;SDS011;62234;50.892;12.724;2023-01-20T17:11:03;27.13;;;12.90;;
73898;SDS011;62234;50.892;12.724;2023-01-20T17:13:29;28.10;;;12.43;;
73898;SDS011;62234;50.892;12.724;2023-01-20T17:15:55;26.52;;;12.73;;
73898;SDS011;62234;50.892;12.724;2023-01-20T17:18:23;27.48;;;11.98;;
73898;SDS011;62234;50.892;12.724;2023-01-20T17:20:49;34.72;;;13.52;;
73898;SDS011;62234;50.892;12.724;2023-01-20T17:23:14;31.85;;;15.48;;
73898;SDS011;62234;50.892;12.724;2023-01-20T17:25:40;43.13;;;19.20;;
73898;SDS011;62234;50.892;12.724;2023-01-20T17:28:06;35.78;;;16.92;;
73898;SDS011;62234;50.892;12.724;2023-01-20T17:30:32;42.60;;;18.52;;
73898;SDS011;62234;50.892;12.724;2023-01-20T17:32:58;64.95;;;24.45;;
73898;SDS011;62234;50.892;12.724;2023-01-20T17:35:24;149.52;;;58.65;;
73898;SDS011;62234;50.892;12.724;2023-01-20T17:37:56;88.07;;;39.08;;
73898;SDS011;62234;50.892;12.724;2023-01-20T17:40:22;65.68;;;30.60;;
73898;SDS011;62234;50.892;12.724;2023-01-20T17:42:50;39.70;;;18.80;;
73898;SDS011;62234;50.892;12.724;2023-01-20T17:45:16;52.28;;;25.00;;
73898;SDS011;62234;50.892;12.724;2023-01-20T17:47:42;38.22;;;19.77;;
73898;SDS011;62234;50.892;12.724;2023-01-20T17:50:09;36.25;;;16.83;;
73898;SDS011;62234;50.892;12.724;2023-01-20T17:52:35;42.58;;;19.70;;
73898;SDS011;62234;50.892;12.724;2023-01-20T17:55:01;39.03;;;15.02;;
73898;SDS011;62234;50.892;12.724;2023-01-20T17:57:27;32.40;;;15.00;;
73898;SDS011;62234;50.892;12.724;2023-01-20T17:59:54;26.27;;;12.25;;
73898;SDS011;62234;50.892;12.724;2023-01-20T18:02:20;27.00;;;11.23;;
73898;SDS011;62234;50.892;12.724;2023-01-20T18:04:46;25.42;;;10.82;;
73898;SDS011;62234;50.892;12.724;2023-01-20T18:07:12;25.83;;;10.88;;
73898;SDS011;62234;50.892;12.724;2023-01-20T18:09:38;24.30;;;9.60;;
73898;SDS011;62234;50.892;12.724;2023-01-20T18:12:04;22.77;;;9.38;;
73898;SDS011;62234;50.892;12.724;2023-01-20T18:14:30;26.35;;;11.43;;
73898;SDS011;62234;50.892;12.724;2023-01-20T18:16:56;29.48;;;14.32;;
73898;SDS011;62234;50.892;12.724;2023-01-20T18:19:22;41.00;;;17.10;;
73898;SDS011;62234;50.892;12.724;2023-01-20T18:21:48;73.22;;;28.35;;
73898;SDS011;62234;50.892;12.724;2023-01-20T18:24:14;46.75;;;22.88;;
73898;SDS011;62234;50.892;12.724;2023-01-20T18:26:40;57.33;;;23.58;;
73898;SDS011;62234;50.892;12.724;2023-01-20T18:29:08;94.30;;;38.95;;
73898;SDS011;62234;50.892;12.724;2023-01-20T18:31:35;50.42;;;20.50;;
73898;SDS011;62234;50.892;12.724;2023-01-20T18:34:01;35.42;;;15.88;;
73898;SDS011;62234;50.892;12.724;2023-01-20T18:36:29;36.97;;;16.42;;
73898;SDS011;62234;50.892;12.724;2023-01-20T18:38:57;93.68;;;35.45;;
73898;SDS011;62234;50.892;12.724;2023-01-20T18:41:23;44.65;;;18.73;;
73898;SDS011;62234;50.892;12.724;2023-01-20T18:43:49;52.15;;;20.02;;
73898;SDS011;62234;50.892;12.724;2023-01-20T18:46:16;67.63;;;25.80;;
73898;SDS011;62234;50.892;12.724;2023-01-20T18:48:43;67.97;;;26.08;;
73898;SDS011;62234;50.892;12.724;2023-01-20T18:51:13;36.70;;;16.73;;
73898;SDS011;62234;50.892;12.724;2023-01-20T18:53:40;35.28;;;16.55;;
73898;SDS011;62234;50.892;12.724;2023-01-20T18:56:07;31.90;;;13.40;;
73898;SDS011;62234;50.892;12.724;2023-01-20T18:58:33;37.03;;;15.10;;
73898;SDS011;62234;50.892;12.724;2023-01-20T19:01:00;36.45;;;13.32;;
73898;SDS011;62234;50.892;12.724;2023-01-20T19:03:26;42.08;;;14.82;;
73898;SDS011;62234;50.892;12.724;2023-01-20T19:05:52;37.72;;;14.88;;
73898;SDS011;62234;50.892;12.724;2023-01-20T19:08:18;31.77;;;12.70;;
73898;SDS011;62234;50.892;12.724;2023-01-20T19:10:44;31.35;;;13.77;;
73898;SDS011;62234;50.892;12.724;2023-01-20T19:13:10;37.22;;;16.15;;
73898;SDS011;62234;50.892;12.724;2023-01-20T19:15:38;32.78;;;15.13;;
73898;SDS011;62234;50.892;12.724;2023-01-20T19:18:04;35.85;;;15.27;;
73898;SDS011;62234;50.892;12.724;2023-01-20T19:20:30;35.83;;;16.25;;
73898;SDS011;62234;50.892;12.724;2023-01-20T19:22:55;40.10;;;17.83;;
73898;SDS011;62234;50.892;12.724;2023-01-20T19:25:21;32.53;;;15.20;;
73898;SDS011;62234;50.892;12.724;2023-01-20T19:27:53;43.05;;;19.48;;
73898;SDS011;62234;50.892;12.724;2023-01-20T19:30:19;50.80;;;19.05;;
73898;SDS011;62234;50.892;12.724;2023-01-20T19:32:45;45.17;;;17.10;;
73898;SDS011;62234;50.892;12.724;2023-01-20T19:35:11;36.03;;;14.07;;
73898;SDS011;62234;50.892;12.724;2023-01-20T19:37:37;39.85;;;15.35;;
73898;SDS011;62234;50.892;12.724;2023-01-20T19:40:03;51.53;;;20.23;;
73898;SDS011;62234;50.892;12.724;2023-01-20T19:42:29;43.60;;;18.27;;
73898;SDS011;62234;50.892;12.724;2023-01-20T19:44:56;38.53;;;16.92;;
73898;SDS011;62234;50.892;12.724;2023-01-20T19:47:22;32.47;;;14.93;;
73898;SDS011;62234;50.892;12.724;2023-01-20T19:49:48;31.42;;;11.80;;
73898;SDS011;62234;50.892;12.724;2023-01-20T19:52:14;30.33;;;13.27;;
73898;SDS011;62234;50.892;12.724;2023-01-20T19:54:40;30.98;;;14.02;;
73898;SDS011;62234;50.892;12.724;2023-01-20T19:57:06;38.08;;;15.75;;
73898;SDS011;62234;50.892;12.724;2023-01-20T19:59:32;35.88;;;15.18;;
73898;SDS011;62234;50.892;12.724;2023-01-20T20:01:58;40.45;;;17.63;;
73898;SDS011;62234;50.892;12.724;2023-01-20T20:04:24;33.85;;;16.40;;
73898;SDS011;62234;50.892;12.724;2023-01-20T20:06:50;36.92;;;16.58;;
73898;SDS011;62234;50.892;12.724;2023-01-20T20:09:19;38.25;;;15.98;;
73898;SDS011;62234;50.892;12.724;2023-01-20T20:11:47;34.42;;;15.32;;
73898;SDS011;62234;50.892;12.724;2023-01-20T20:14:14;43.15;;;16.02;;
73898;SDS011;62234;50.892;12.724;2023-01-20T20:16:40;32.53;;;14.93;;
73898;SDS011;62234;50.892;12.724;2023-01-20T20:19:07;28.73;;;13.48;;
73898;SDS011;62234;50.892;12.724;2023-01-20T20:21:33;30.83;;;14.25;;
73898;SDS011;62234;50.892;12.724;2023-01-20T20:24:00;34.90;;;14.95;;
73898;SDS011;62234;50.892;12.724;2023-01-20T20:26:28;32.83;;;15.40;;
73898;SDS011;62234;50.892;12.724;2023-01-20T20:28:54;35.65;;;16.02;;
73898;SDS011;62234;50.892;12.724;2023-01-20T20:31:20;32.90;;;13.13;;
73898;SDS011;62234;50.892;12.724;2023-01-20T20:33:52;29.60;;;13.60;;
73898;SDS011;62234;50.892;12.724;2023-01-20T20:36:18;28.60;;;13.10;;
73898;SDS011;62234;50.892;12.724;2023-01-20T20:38:45;34.88;;;13.40;;
73898;SDS011;62234;50.892;12.724;2023-01-20T20:41:14;29.90;;;12.85;;
73898;SDS011;62234;50.892;12.724;2023-01-20T20:43:40;36.47;;;12.75;;
73898;SDS011;62234;50.892;12.724;2023-01-20T20:46:06;27.55;;;12.70;;
73898;SDS011;62234;50.892;12.724;2023-01-20T20:48:32;29.73;;;13.32;;
73898;SDS011;62234;50.892;12.724;2023-01-20T20:51:09;30.27;;;12.63;;
73898;SDS011;62234;50.892;12.724;2023-01-20T20:53:35;28.25;;;12.73;;
73898;SDS011;62234;50.892;12.724;2023-01-20T20:56:04;34.53;;;14.50;;
73898;SDS011;62234;50.892;12.724;2023-01-20T20:58:30;29.42;;;13.05;;
73898;SDS011;62234;50.892;12.724;2023-01-20T21:00:57;32.90;;;14.48;;
73898;SDS011;62234;50.892;12.724;2023-01-20T21:03:26;29.88;;;13.57;;
73898;SDS011;62234;50.892;12.724;2023-01-20T21:05:52;29.45;;;13.13;;
73898;SDS011;62234;50.892;12.724;2023-01-20T21:08:18;29.98;;;14.07;;
73898;SDS011;62234;50.892;12.724;2023-01-20T21:10:44;39.60;;;16.30;;
73898;SDS011;62234;50.892;12.724;2023-01-20T21:13:10;47.60;;;15.35;;
73898;SDS011;62234;50.892;12.724;2023-01-20T21:15:36;35.55;;;15.45;;
73898;SDS011;62234;50.892;12.724;2023-01-20T21:18:05;57.33;;;22.65;;
73898;SDS011;62234;50.892;12.724;2023-01-20T21:20:31;61.97;;;20.90;;
73898;SDS011;62234;50.892;12.724;2023-01-20T21:22:58;41.28;;;15.10;;
73898;SDS011;62234;50.892;12.724;2023-01-20T21:25:24;34.45;;;13.50;;
73898;SDS011;62234;50.892;12.724;2023-01-20T21:27:50;31.42;;;13.70;;
73898;SDS011;62234;50.892;12.724;2023-01-20T21:30:18;34.75;;;14.18;;
73898;SDS011;62234;50.892;12.724;2023-01-20T21:32:44;36.83;;;14.40;;
73898;SDS011;62234;50.892;12.724;2023-01-20T21:35:10;31.90;;;13.50;;
73898;SDS011;62234;50.892;12.724;2023-01-20T21:37:36;37.28;;;15.88;;